Time;durP1;ratioP1;P1;durP2;ratioP2;P2;SDS_P1;SDS_P2;PMS_P1;PMS_P2;Temp;Humidity;BMP_temperature;BMP_pressure;BME280_temperature;BME280_humidity;BME280_pressure;Samples;Min_cycle;Max_cycle;Signal;HPM_P1;HPM_P2
2021/01/07 00:00:10;;;;;;;37.00;15.80;;;0.80;99.90;;;;;;5070395;28;20444;-52
2021/01/07 00:02:37;;;;;;;36.97;14.80;;;0.70;99.90;;;;;;5070961;28;20450;-53
2021/01/07 00:05:05;;;;;;;36.77;15.10;;;0.70;99.90;;;;;;5070628;28;20844;-53
2021/01/07 00:07:32;;;;;;;33.17;14.30;;;0.80;99.90;;;;;;5070580;28;20995;-53
2021/01/07 00:09:58;;;;;;;33.70;14.37;;;0.90;99.90;;;;;;5070338;28;20795;-53
2021/01/07 00:12:25;;;;;;;30.30;12.90;;;0.90;99.90;;;;;;5070884;28;20454;-53
2021/01/07 00:14:51;;;;;;;31.27;12.63;;;0.80;99.90;;;;;;5070059;28;20488;-52
2021/01/07 00:17:19;;;;;;;31.80;14.47;;;0.90;99.90;;;;;;5070314;28;20470;-53
2021/01/07 00:19:45;;;;;;;32.13;13.53;;;0.90;99.90;;;;;;5070525;28;20442;-53
2021/01/07 00:22:11;;;;;;;35.23;14.00;;;0.80;99.90;;;;;;5070966;28;20449;-53
2021/01/07 00:24:38;;;;;;;34.93;14.00;;;0.80;99.90;;;;;;5070341;28;20454;-53
2021/01/07 00:27:05;;;;;;;34.70;13.80;;;0.90;99.90;;;;;;5070547;28;20489;-53
2021/01/07 00:29:31;;;;;;;33.83;14.50;;;0.80;99.90;;;;;;5070387;28;20488;-52
2021/01/07 00:31:58;;;;;;;32.43;13.97;;;0.80;99.90;;;;;;5070853;28;20453;-53
2021/01/07 00:34:25;;;;;;;32.53;14.53;;;0.70;99.90;;;;;;5070310;28;20449;-53
2021/01/07 00:36:56;;;;;;;34.87;14.10;;;0.50;99.90;;;;;;5070299;28;20473;-53
2021/01/07 00:39:23;;;;;;;33.27;13.80;;;0.40;99.90;;;;;;5070353;28;20456;-53
2021/01/07 00:41:53;;;;;;;32.13;14.17;;;0.60;99.90;;;;;;5069695;28;20469;-53
2021/01/07 00:44:20;;;;;;;32.10;13.60;;;0.60;99.90;;;;;;5065768;28;20807;-53
2021/01/07 00:46:46;;;;;;;33.60;13.60;;;0.70;99.90;;;;;;5069911;28;20493;-53
2021/01/07 00:49:13;;;;;;;29.03;12.87;;;0.70;99.90;;;;;;5070049;28;20500;-53
2021/01/07 00:51:40;;;;;;;35.43;13.67;;;0.70;99.90;;;;;;5070089;28;20456;-53
2021/01/07 00:54:07;;;;;;;29.73;13.17;;;0.80;99.90;;;;;;5070513;28;20453;-53
2021/01/07 00:56:37;;;;;;;31.23;13.73;;;0.60;99.90;;;;;;5070304;28;20446;-53
2021/01/07 00:59:06;;;;;;;33.43;13.67;;;0.50;99.90;;;;;;5069586;28;20492;-53
2021/01/07 01:01:34;;;;;;;27.50;13.37;;;0.40;99.90;;;;;;5069738;28;20449;-53
2021/01/07 01:04:00;;;;;;;32.50;12.73;;;0.50;99.90;;;;;;5070176;28;20894;-53
2021/01/07 01:06:31;;;;;;;30.83;13.33;;;0.60;99.90;;;;;;5069739;28;21021;-52
2021/01/07 01:08:58;;;;;;;26.23;11.60;;;0.60;99.90;;;;;;5069583;28;20453;-53
2021/01/07 01:11:24;;;;;;;25.80;12.40;;;0.60;99.90;;;;;;5069748;28;21159;-53
2021/01/07 01:13:51;;;;;;;28.70;13.20;;;0.70;99.90;;;;;;5069600;28;20462;-53
2021/01/07 01:16:21;;;;;;;33.10;13.97;;;0.70;99.90;;;;;;5063585;28;20472;-53
2021/01/07 01:18:47;;;;;;;31.40;12.50;;;0.80;99.90;;;;;;5069567;28;20446;-53
2021/01/07 01:21:16;;;;;;;31.00;13.00;;;0.80;99.90;;;;;;5069448;28;20458;-53
2021/01/07 01:23:43;;;;;;;28.97;13.30;;;0.70;99.90;;;;;;5069770;28;20454;-53
2021/01/07 01:26:10;;;;;;;30.33;13.03;;;0.60;99.90;;;;;;5069542;28;20474;-53
2021/01/07 01:28:36;;;;;;;31.30;11.87;;;0.60;99.90;;;;;;5069439;28;20556;-53
2021/01/07 01:31:03;;;;;;;32.37;12.90;;;0.60;99.90;;;;;;5069296;28;20461;-53
2021/01/07 01:33:29;;;;;;;28.10;12.10;;;0.90;99.90;;;;;;5069675;28;20454;-53
2021/01/07 01:35:56;;;;;;;27.37;11.67;;;0.90;99.90;;;;;;5070145;28;20458;-53
2021/01/07 01:38:22;;;;;;;27.37;11.13;;;0.80;99.90;;;;;;5069716;28;20473;-53
2021/01/07 01:40:49;;;;;;;29.90;12.43;;;0.70;99.90;;;;;;5069323;28;20450;-53
2021/01/07 01:43:17;;;;;;;27.00;11.70;;;0.70;99.90;;;;;;5069188;28;20451;-53
2021/01/07 01:45:43;;;;;;;26.70;11.87;;;0.80;99.90;;;;;;5069951;28;20496;-53
2021/01/07 01:48:11;;;;;;;26.13;11.13;;;0.70;99.90;;;;;;5072348;28;20469;-53
2021/01/07 01:50:37;;;;;;;26.20;10.93;;;0.70;99.90;;;;;;5076762;28;20453;-52
2021/01/07 01:53:04;;;;;;;29.10;12.47;;;0.80;99.90;;;;;;5078063;28;21201;-53
2021/01/07 01:55:31;;;;;;;24.73;12.20;;;0.80;99.90;;;;;;5077417;28;20457;-53
2021/01/07 01:58:00;;;;;;;31.10;12.37;;;0.50;99.90;;;;;;5077710;28;20466;-53
2021/01/07 02:00:27;;;;;;;32.83;13.13;;;0.50;99.90;;;;;;5077684;28;20454;-53
2021/01/07 02:02:53;;;;;;;26.97;11.37;;;0.60;99.90;;;;;;5076864;28;20454;-53
2021/01/07 02:05:20;;;;;;;26.67;11.50;;;0.50;99.90;;;;;;5077537;28;20453;-53
2021/01/07 02:07:48;;;;;;;28.93;12.50;;;0.30;99.90;;;;;;5076743;28;20489;-53
2021/01/07 02:10:15;;;;;;;27.23;10.97;;;0.30;99.90;;;;;;5077650;28;20461;-53
2021/01/07 02:12:45;;;;;;;27.53;11.80;;;0.30;99.90;;;;;;5077032;28;20453;-53
2021/01/07 02:15:14;;;;;;;24.87;10.53;;;0.40;99.90;;;;;;5077691;28;20458;-53
2021/01/07 02:17:41;;;;;;;23.70;11.17;;;0.40;99.90;;;;;;5076968;28;20465;-53
2021/01/07 02:20:11;;;;;;;26.37;11.47;;;0.60;99.90;;;;;;5077122;28;20453;-53
2021/01/07 02:22:37;;;;;;;26.03;10.70;;;0.80;99.90;;;;;;5076570;28;20449;-53
2021/01/07 02:25:04;;;;;;;24.23;10.30;;;0.60;99.90;;;;;;5077420;28;20453;-53
2021/01/07 02:27:31;;;;;;;24.83;10.20;;;0.60;99.90;;;;;;5074506;28;20494;-53
2021/01/07 02:29:57;;;;;;;22.40;11.03;;;0.40;99.90;;;;;;5072636;28;20449;-53
2021/01/07 02:32:24;;;;;;;26.90;11.17;;;0.40;99.90;;;;;;5071814;28;20454;-53
2021/01/07 02:34:50;;;;;;;24.93;10.30;;;0.30;99.90;;;;;;5072612;28;20453;-53
2021/01/07 02:37:17;;;;;;;20.67;10.77;;;0.30;99.90;;;;;;5072233;28;20468;-53
2021/01/07 02:39:44;;;;;;;27.10;12.10;;;0.40;99.90;;;;;;5071930;28;20449;-53
2021/01/07 02:42:10;;;;;;;28.80;10.90;;;0.50;99.90;;;;;;5071890;28;20451;-52
2021/01/07 02:44:37;;;;;;;26.57;10.73;;;0.50;99.90;;;;;;5072520;28;20951;-53
2021/01/07 02:47:03;;;;;;;20.93;10.00;;;0.50;99.90;;;;;;5072013;28;20489;-53
2021/01/07 02:49:30;;;;;;;24.50;10.33;;;0.40;99.90;;;;;;5072062;28;20457;-53
2021/01/07 02:51:56;;;;;;;23.50;10.73;;;0.50;99.90;;;;;;5071400;28;20441;-53
2021/01/07 02:54:24;;;;;;;30.00;11.13;;;0.40;99.90;;;;;;5072485;28;20503;-53
2021/01/07 02:56:50;;;;;;;19.90;10.13;;;0.40;99.90;;;;;;5071883;28;20469;-52
2021/01/07 02:59:16;;;;;;;18.63;9.13;;;0.60;99.90;;;;;;5071815;28;20456;-53
2021/01/07 03:01:43;;;;;;;24.20;11.10;;;0.50;99.90;;;;;;5070816;28;20453;-53
2021/01/07 03:04:09;;;;;;;28.67;11.30;;;0.50;99.90;;;;;;5071514;28;20456;-53
2021/01/07 03:06:36;;;;;;;22.37;10.03;;;0.50;99.90;;;;;;5071633;28;20486;-53
2021/01/07 03:09:06;;;;;;;23.20;9.80;;;0.60;99.90;;;;;;5071883;28;20450;-53
2021/01/07 03:11:35;;;;;;;25.40;9.50;;;0.80;99.90;;;;;;5067197;28;20452;-53
2021/01/07 03:14:02;;;;;;;24.40;10.33;;;0.80;99.90;;;;;;5071830;28;20472;-53
2021/01/07 03:16:28;;;;;;;19.83;9.53;;;0.70;99.90;;;;;;5071595;28;20445;-53
2021/01/07 03:18:55;;;;;;;19.80;9.63;;;0.70;99.90;;;;;;5071502;28;20454;-53
2021/01/07 03:21:22;;;;;;;19.57;9.60;;;0.70;99.90;;;;;;5071117;28;20445;-52
2021/01/07 03:23:48;;;;;;;21.37;9.27;;;0.60;99.90;;;;;;5071855;28;20445;-53
2021/01/07 03:26:15;;;;;;;22.20;9.13;;;0.60;99.90;;;;;;5071531;28;20835;-53
2021/01/07 03:28:42;;;;;;;23.23;10.20;;;0.60;99.90;;;;;;5071055;28;20567;-53
2021/01/07 03:31:09;;;;;;;20.70;10.20;;;0.70;99.90;;;;;;5071164;28;20458;-53
2021/01/07 03:33:35;;;;;;;24.10;10.13;;;0.70;99.90;;;;;;5071191;28;20960;-53
2021/01/07 03:36:03;;;;;;;25.40;10.20;;;0.60;99.90;;;;;;5070759;28;20813;-53
2021/01/07 03:38:29;;;;;;;21.70;9.40;;;0.40;99.90;;;;;;5071154;28;20476;-53
2021/01/07 03:40:56;;;;;;;21.63;10.23;;;0.40;99.90;;;;;;5071068;28;20450;-53
2021/01/07 03:43:23;;;;;;;22.07;9.27;;;0.40;99.90;;;;;;5071102;28;20993;-53
2021/01/07 03:45:50;;;;;;;18.37;8.30;;;0.40;99.90;;;;;;5069947;28;20465;-52
2021/01/07 03:48:17;;;;;;;19.93;9.07;;;0.60;99.90;;;;;;5070673;28;20513;-53
2021/01/07 03:50:43;;;;;;;20.67;10.70;;;0.40;99.90;;;;;;5070257;28;20446;-52
2021/01/07 03:53:09;;;;;;;18.30;8.90;;;0.30;99.90;;;;;;5070830;28;20454;-53
2021/01/07 03:55:36;;;;;;;22.67;8.57;;;0.30;99.90;;;;;;5070841;28;20962;-52
2021/01/07 04:25:16;;;;;;;18.10;8.13;;;0.50;99.90;;;;;;5063511;28;20780;-52
2021/01/07 04:27:43;;;;;;;23.73;9.70;;;0.60;99.90;;;;;;5070364;28;20482;-52
2021/01/07 04:30:10;;;;;;;27.40;11.57;;;0.60;99.90;;;;;;5069906;28;20511;-52
2021/01/07 04:32:37;;;;;;;27.53;11.60;;;0.60;99.90;;;;;;5065636;28;20825;-53
2021/01/07 04:35:04;;;;;;;24.63;10.87;;;0.50;99.90;;;;;;5070352;28;20454;-53
2021/01/07 04:37:31;;;;;;;19.80;10.20;;;0.50;99.90;;;;;;5070496;28;20472;-52
2021/01/07 04:39:57;;;;;;;23.07;10.30;;;0.40;99.90;;;;;;5069658;28;20445;-52
2021/01/07 04:42:25;;;;;;;18.60;8.50;;;0.30;99.90;;;;;;5070551;28;20834;-52
2021/01/07 04:44:52;;;;;;;18.50;7.97;;;0.60;99.90;;;;;;5070521;28;20450;-53
2021/01/07 04:47:18;;;;;;;21.57;8.37;;;0.70;99.90;;;;;;5070007;28;20626;-53
2021/01/07 04:49:46;;;;;;;16.00;7.97;;;0.50;99.90;;;;;;5070066;28;20822;-52
2021/01/07 04:52:12;;;;;;;18.73;8.77;;;0.30;99.90;;;;;;5069985;28;20989;-53
2021/01/07 04:54:38;;;;;;;21.53;9.83;;;0.20;99.90;;;;;;5069981;28;20536;-52
2021/01/07 04:57:05;;;;;;;20.40;9.13;;;0.20;99.90;;;;;;5069978;28;20468;-52
2021/01/07 04:59:32;;;;;;;18.13;8.13;;;0.30;99.90;;;;;;5069757;28;20450;-52
2021/01/07 05:01:59;;;;;;;20.87;9.53;;;0.20;99.90;;;;;;5065254;28;20450;-53
2021/01/07 05:04:25;;;;;;;20.10;8.87;;;0.20;99.90;;;;;;5070018;28;20453;-52
2021/01/07 05:06:52;;;;;;;19.63;9.27;;;0.40;99.90;;;;;;5069884;28;20495;-52
2021/01/07 05:09:18;;;;;;;17.20;7.83;;;0.40;99.90;;;;;;5068549;28;20445;-52
2021/01/07 05:11:45;;;;;;;15.53;7.50;;;0.50;99.90;;;;;;5069046;28;20450;-52
2021/01/07 05:14:11;;;;;;;21.37;8.60;;;0.30;99.90;;;;;;5068068;28;20460;-52
2021/01/07 05:16:39;;;;;;;17.97;7.70;;;0.30;99.90;;;;;;5067537;28;21210;-52
2021/01/07 05:19:10;;;;;;;15.10;7.50;;;0.50;99.90;;;;;;5061063;28;20866;-52
2021/01/07 05:21:37;;;;;;;17.70;8.17;;;0.30;99.90;;;;;;5066183;28;20452;-52
2021/01/07 05:24:07;;;;;;;16.50;7.90;;;0.30;99.90;;;;;;5069342;28;20454;-52
2021/01/07 05:26:34;;;;;;;16.37;8.03;;;0.30;99.90;;;;;;5065891;28;20487;-52
2021/01/07 05:29:06;;;;;;;18.27;8.37;;;0.10;99.90;;;;;;5072207;28;20473;-52
2021/01/07 05:31:33;;;;;;;19.63;8.60;;;0.00;99.90;;;;;;5087112;28;20453;-52
2021/01/07 05:34:00;;;;;;;23.83;8.70;;;0.10;99.90;;;;;;5072789;28;20531;-52
2021/01/07 05:36:29;;;;;;;19.13;8.93;;;0.20;99.90;;;;;;5072708;28;20440;-53
2021/01/07 05:38:56;;;;;;;19.13;8.70;;;0.30;99.90;;;;;;5072561;28;20460;-53
2021/01/07 05:41:24;;;;;;;16.80;8.47;;;0.20;99.90;;;;;;5072184;28;20993;-52
2021/01/07 05:44:13;;;;;;;22.30;9.33;;;0.40;99.90;;;;;;5072552;28;21013;-52
2021/01/07 05:46:42;;;;;;;16.07;8.20;;;0.20;99.90;;;;;;5057317;28;20493;-54
2021/01/07 05:49:14;;;;;;;19.00;8.40;;;0.20;99.90;;;;;;5081088;28;20476;-52
2021/01/07 05:51:45;;;;;;;15.30;8.20;;;0.30;99.90;;;;;;5061907;28;20522;-53
2021/01/07 05:54:13;;;;;;;17.20;7.73;;;0.30;99.90;;;;;;5068035;28;20843;-52
2021/01/07 05:56:40;;;;;;;18.10;8.50;;;0.50;99.90;;;;;;5066405;28;20460;-52
2021/01/07 05:59:09;;;;;;;18.63;8.90;;;0.50;99.90;;;;;;5061721;28;21050;-52
2021/01/07 06:01:37;;;;;;;18.27;8.30;;;0.30;99.90;;;;;;5072277;28;20445;-52
2021/01/07 06:04:06;;;;;;;19.63;9.20;;;0.30;99.90;;;;;;5072497;28;20586;-51
2021/01/07 06:06:34;;;;;;;24.10;10.07;;;0.50;99.90;;;;;;5044937;28;625151;-52
2021/01/07 06:09:03;;;;;;;16.30;8.57;;;0.50;99.90;;;;;;5069358;28;20505;-52
2021/01/07 06:11:31;;;;;;;16.47;8.30;;;0.40;99.90;;;;;;5069173;28;20465;-51
2021/01/07 06:13:58;;;;;;;18.67;8.70;;;0.30;99.90;;;;;;5070075;28;20887;-52
2021/01/07 06:16:25;;;;;;;18.23;7.90;;;0.30;99.90;;;;;;5069197;28;20469;-52
2021/01/07 06:18:54;;;;;;;14.80;7.20;;;0.40;99.90;;;;;;5069366;28;20830;-51
2021/01/07 06:21:27;;;;;;;15.23;7.10;;;0.30;99.90;;;;;;5073766;28;20506;-52
2021/01/07 06:23:58;;;;;;;16.33;7.33;;;0.30;99.90;;;;;;5069506;28;21030;-52
2021/01/07 06:26:25;;;;;;;18.53;7.60;;;0.20;99.90;;;;;;5065996;28;20550;-51
2021/01/07 06:28:54;;;;;;;17.83;8.07;;;0.20;99.90;;;;;;5069019;28;20466;-52
2021/01/07 06:31:30;;;;;;;15.97;7.20;;;0.10;99.90;;;;;;5068015;28;21658;-52
2021/01/07 06:33:56;;;;;;;14.97;7.50;;;0.10;99.90;;;;;;5068183;28;20469;-52
2021/01/07 06:36:36;;;;;;;13.93;6.33;;;0.10;99.90;;;;;;5068071;28;20466;-52
2021/01/07 06:39:05;;;;;;;15.17;6.93;;;0.00;99.90;;;;;;5069385;28;20467;-52
2021/01/07 06:41:31;;;;;;;14.57;6.90;;;0.10;99.90;;;;;;5070220;28;20461;-51
2021/01/07 06:43:59;;;;;;;13.60;6.50;;;0.20;99.90;;;;;;5071537;28;20836;-52
2021/01/07 06:46:47;;;;;;;13.53;6.40;;;0.20;99.90;;;;;;5069127;28;20453;-52
2021/01/07 06:49:22;;;;;;;16.90;7.67;;;0.10;99.90;;;;;;5066605;28;20489;-52
2021/01/07 06:51:54;;;;;;;16.67;7.80;;;0.00;99.90;;;;;;5067232;28;20463;-53
2021/01/07 06:54:23;;;;;;;16.43;7.67;;;0.00;99.90;;;;;;5071347;28;20803;-53
2021/01/07 06:56:53;;;;;;;20.73;8.00;;;0.00;99.90;;;;;;5071223;28;20477;-53
2021/01/07 06:59:22;;;;;;;18.10;6.87;;;0.20;99.90;;;;;;5071145;28;20465;-53
2021/01/07 07:01:51;;;;;;;18.13;7.83;;;0.20;99.90;;;;;;5065106;28;20547;-52
2021/01/07 07:04:25;;;;;;;15.30;7.47;;;0.00;99.90;;;;;;5069631;28;20814;-52
2021/01/07 07:06:58;;;;;;;18.43;7.47;;;0.00;99.90;;;;;;5068322;28;21004;-52
2021/01/07 07:09:27;;;;;;;16.17;7.97;;;0.20;99.90;;;;;;5066782;28;21028;-52
2021/01/07 07:11:55;;;;;;;14.10;7.20;;;0.10;99.90;;;;;;5069169;28;20458;-52
2021/01/07 07:14:22;;;;;;;21.10;7.10;;;0.20;99.90;;;;;;5067314;28;20810;-52
2021/01/07 07:16:50;;;;;;;12.37;5.97;;;0.10;99.90;;;;;;5069057;28;20479;-53
2021/01/07 07:19:23;;;;;;;13.70;6.00;;;0.00;99.90;;;;;;5067253;28;20460;-53
2021/01/07 07:22:00;;;;;;;13.43;6.07;;;0.00;99.90;;;;;;5067183;28;20497;-52
2021/01/07 07:24:40;;;;;;;16.80;7.00;;;0.10;99.90;;;;;;5068173;28;20464;-52
2021/01/07 07:27:11;;;;;;;16.00;7.50;;;-0.10;99.90;;;;;;5067048;28;20491;-52
2021/01/07 07:29:39;;;;;;;17.43;6.47;;;-0.10;99.90;;;;;;5066009;28;20473;-52
2021/01/07 07:32:23;;;;;;;13.93;6.10;;;-0.20;99.90;;;;;;5069203;28;20466;-52
2021/01/07 07:34:51;;;;;;;15.30;6.50;;;0.00;99.90;;;;;;5068157;28;20462;-52
2021/01/07 07:37:24;;;;;;;15.30;7.03;;;-0.20;99.90;;;;;;5068618;28;20528;-52
2021/01/07 07:39:59;;;;;;;14.00;7.07;;;-0.30;99.90;;;;;;5065968;28;20456;-52
2021/01/07 07:42:28;;;;;;;17.57;7.10;;;-0.30;99.90;;;;;;5069290;28;20463;-52
2021/01/07 07:44:55;;;;;;;18.33;7.20;;;-0.20;99.90;;;;;;5065979;28;20548;-52
2021/01/07 07:47:22;;;;;;;13.90;6.87;;;-0.30;99.90;;;;;;5066540;28;20903;-52
2021/01/07 07:49:54;;;;;;;15.33;6.70;;;-0.30;99.90;;;;;;5068434;28;20466;-52
2021/01/07 07:52:21;;;;;;;14.67;6.57;;;-0.10;99.90;;;;;;5070450;28;20558;-52
2021/01/07 07:54:59;;;;;;;12.90;5.97;;;0.00;99.90;;;;;;5069984;28;21032;-52
2021/01/07 07:57:26;;;;;;;10.90;5.37;;;0.10;99.90;;;;;;5069444;28;21024;-52
2021/01/07 07:59:52;;;;;;;13.93;5.90;;;0.20;99.90;;;;;;5069742;28;20977;-53
2021/01/07 08:02:20;;;;;;;14.10;6.57;;;0.20;99.90;;;;;;5069478;28;20473;-53
2021/01/07 08:04:46;;;;;;;11.97;6.07;;;0.10;99.90;;;;;;5069791;28;20469;-53
2021/01/07 08:07:13;;;;;;;12.50;5.87;;;0.20;99.90;;;;;;5071138;28;20500;-52
2021/01/07 08:09:40;;;;;;;11.93;5.20;;;0.20;99.90;;;;;;5069963;28;20462;-52
2021/01/07 08:12:08;;;;;;;11.73;6.23;;;0.10;99.90;;;;;;5069386;28;20519;-53
2021/01/07 08:14:41;;;;;;;12.73;6.43;;;0.10;99.90;;;;;;5070864;28;20510;-53
2021/01/07 08:17:08;;;;;;;11.07;5.80;;;0.00;99.90;;;;;;5066106;28;20502;-53
2021/01/07 08:19:36;;;;;;;12.60;5.80;;;0.00;99.90;;;;;;5070518;28;20496;-53
2021/01/07 08:22:04;;;;;;;11.43;5.77;;;0.10;99.90;;;;;;5070273;28;20448;-52
2021/01/07 08:24:30;;;;;;;11.37;6.07;;;0.30;99.90;;;;;;5067234;28;20807;-52
2021/01/07 08:27:19;;;;;;;14.13;6.07;;;0.30;99.90;;;;;;5058280;28;21145;-52
2021/01/07 08:29:47;;;;;;;13.27;5.73;;;0.30;99.90;;;;;;5066335;28;20458;-52
2021/01/07 08:32:18;;;;;;;14.70;7.97;;;0.40;99.90;;;;;;5065342;28;20827;-53
2021/01/07 08:34:46;;;;;;;15.07;6.80;;;0.30;99.90;;;;;;5065833;28;22404;-53
2021/01/07 08:37:14;;;;;;;11.93;6.30;;;0.40;99.90;;;;;;5064542;28;20589;-52
2021/01/07 08:39:42;;;;;;;14.50;6.17;;;0.60;99.90;;;;;;5066208;28;21012;-52
2021/01/07 08:42:09;;;;;;;14.17;6.03;;;0.60;99.90;;;;;;5065912;28;20469;-52
2021/01/07 08:44:37;;;;;;;12.53;6.50;;;0.50;99.90;;;;;;5066076;28;20460;-52
2021/01/07 08:47:19;;;;;;;14.47;6.47;;;0.40;99.90;;;;;;5065240;28;20496;-53
2021/01/07 08:49:45;;;;;;;15.50;6.70;;;0.50;99.90;;;;;;5066955;28;20471;-52
2021/01/07 09:02:20;;;;;;;15.80;6.87;;;0.50;99.90;;;;;;5069315;28;20492;-52
2021/01/07 09:04:49;;;;;;;14.27;6.20;;;0.60;99.90;;;;;;5072036;28;20476;-51
2021/01/07 09:07:21;;;;;;;10.07;5.50;;;0.70;99.90;;;;;;5064881;28;20844;-52
2021/01/07 09:09:48;;;;;;;12.83;5.57;;;0.90;99.90;;;;;;5064028;28;20473;-51
2021/01/07 09:12:20;;;;;;;11.30;5.43;;;0.70;99.90;;;;;;5067576;28;20793;-52
2021/01/07 09:14:55;;;;;;;13.10;5.80;;;0.80;99.90;;;;;;5064548;28;20485;-52
2021/01/07 09:17:24;;;;;;;11.93;5.10;;;0.80;99.90;;;;;;5063445;28;20484;-52
2021/01/07 09:19:52;;;;;;;16.73;6.07;;;0.80;99.90;;;;;;5066490;28;20461;-52
2021/01/07 09:22:24;;;;;;;16.60;6.17;;;0.90;99.90;;;;;;5060403;28;20469;-52
2021/01/07 09:24:52;;;;;;;13.80;5.30;;;0.90;99.90;;;;;;5063353;28;20561;-52
2021/01/07 09:27:20;;;;;;;12.20;6.00;;;0.80;99.90;;;;;;5063972;28;20481;-52
2021/01/07 09:29:47;;;;;;;9.30;5.17;;;0.80;99.90;;;;;;5085366;28;20471;-52
2021/01/07 09:32:15;;;;;;;11.83;5.70;;;1.00;99.90;;;;;;5065219;28;20682;-52
2021/01/07 09:34:44;;;;;;;11.27;5.40;;;1.00;99.90;;;;;;5065542;28;20464;-52
2021/01/07 09:37:12;;;;;;;14.53;6.10;;;1.00;99.90;;;;;;5062920;28;20493;-52
2021/01/07 09:39:39;;;;;;;15.77;6.53;;;1.00;99.90;;;;;;5065218;28;20838;-52
2021/01/07 09:42:06;;;;;;;10.83;5.37;;;1.10;99.90;;;;;;5064415;28;20469;-52
2021/01/07 09:44:34;;;;;;;12.90;5.97;;;1.10;99.90;;;;;;5064581;28;20457;-52
2021/01/07 09:47:01;;;;;;;10.47;5.80;;;1.20;99.90;;;;;;5066654;28;20489;-52
2021/01/07 09:49:28;;;;;;;20.50;7.90;;;1.20;99.90;;;;;;5066319;28;20893;-53
2021/01/07 09:51:57;;;;;;;13.80;5.80;;;1.30;99.90;;;;;;5065007;28;20457;-53
2021/01/07 09:54:24;;;;;;;12.90;5.43;;;1.40;99.90;;;;;;5063658;28;20457;-52
2021/01/07 09:56:52;;;;;;;14.93;5.70;;;1.50;99.90;;;;;;5062741;28;21007;-52
2021/01/07 09:59:20;;;;;;;10.90;5.40;;;1.60;99.90;;;;;;5064131;28;20553;-52
2021/01/07 10:01:47;;;;;;;12.30;5.90;;;1.40;99.90;;;;;;5064575;28;20512;-52
2021/01/07 10:04:16;;;;;;;14.00;5.33;;;1.40;99.90;;;;;;5066088;28;20470;-53
2021/01/07 10:06:43;;;;;;;16.70;5.27;;;1.50;99.90;;;;;;5065563;28;20492;-52
2021/01/07 10:09:10;;;;;;;10.20;4.90;;;1.40;99.90;;;;;;5063308;28;20470;-52
2021/01/07 10:11:36;;;;;;;12.90;4.90;;;1.40;99.90;;;;;;5070558;28;20462;-52
2021/01/07 10:14:03;;;;;;;11.40;5.13;;;1.40;99.90;;;;;;5068830;28;21490;-52
2021/01/07 10:16:30;;;;;;;7.63;4.40;;;1.60;99.90;;;;;;5068821;28;20519;-52
2021/01/07 10:18:57;;;;;;;14.10;5.50;;;1.60;99.90;;;;;;5069038;28;20464;-52
2021/01/07 10:21:25;;;;;;;11.70;5.20;;;1.70;99.90;;;;;;5067606;28;20477;-52
2021/01/07 10:23:53;;;;;;;15.10;5.73;;;1.70;99.90;;;;;;5069344;28;20465;-52
2021/01/07 10:26:21;;;;;;;12.90;5.50;;;1.80;99.90;;;;;;5067950;28;21001;-52
2021/01/07 10:28:48;;;;;;;13.50;5.90;;;1.90;99.90;;;;;;5070107;28;20572;-53
2021/01/07 10:31:16;;;;;;;10.30;5.13;;;2.20;99.90;;;;;;5068988;28;20988;-52
2021/01/07 10:33:44;;;;;;;12.07;5.00;;;2.20;99.90;;;;;;5069122;28;20461;-53
2021/01/07 10:36:13;;;;;;;13.27;5.93;;;2.60;99.90;;;;;;5073240;28;20509;-53
2021/01/07 10:38:41;;;;;;;12.50;5.60;;;2.80;99.90;;;;;;5066931;28;20478;-52
2021/01/07 10:41:08;;;;;;;10.53;5.63;;;2.80;99.90;;;;;;5068033;28;20496;-52
2021/01/07 10:43:36;;;;;;;16.73;5.80;;;2.80;99.90;;;;;;5067548;28;20462;-52
2021/01/07 10:46:03;;;;;;;13.25;6.13;;;2.80;99.90;;;;;;5067391;28;20458;-52
2021/01/07 10:48:35;;;;;;;8.90;5.30;;;3.10;99.90;;;;;;5069651;28;20712;-53
2021/01/07 10:51:03;;;;;;;11.77;5.73;;;3.20;99.90;;;;;;5066651;28;20518;-53
2021/01/07 10:54:08;;;;;;;12.20;6.00;;;3.20;99.90;;;;;;5066309;28;20459;-53
2021/01/07 10:57:02;;;;;;;7.10;4.67;;;3.60;99.90;;;;;;5070680;28;20462;-53
2021/01/07 10:59:37;;;;;;;10.23;5.20;;;3.70;99.90;;;;;;5066498;28;20470;-53
2021/01/07 11:02:34;;;;;;;12.83;5.87;;;3.60;99.90;;;;;;5071054;28;22267;-53
2021/01/07 11:05:10;;;;;;;11.10;6.00;;;3.30;99.90;;;;;;5070472;28;20848;-53
2021/01/07 11:07:44;;;;;;;12.30;6.07;;;3.50;99.90;;;;;;5066626;28;20987;-53
2021/01/07 11:10:13;;;;;;;11.00;5.47;;;3.70;99.90;;;;;;5065784;28;20557;-53
2021/01/07 11:12:46;;;;;;;10.80;5.37;;;3.70;99.90;;;;;;5071744;28;20466;-53
2021/01/07 11:15:19;;;;;;;9.97;5.10;;;3.90;99.90;;;;;;5067089;28;20458;-52
2021/01/07 11:17:53;;;;;;;9.43;4.70;;;3.90;99.90;;;;;;5068805;28;21003;-52
2021/01/07 11:20:23;;;;;;;11.13;5.37;;;3.90;99.90;;;;;;5066695;28;20905;-52
2021/01/07 11:22:51;;;;;;;9.43;5.40;;;3.80;99.90;;;;;;5065231;28;20463;-52
2021/01/07 11:25:18;;;;;;;10.90;6.37;;;3.70;99.90;;;;;;5067624;28;20963;-53
2021/01/07 11:27:46;;;;;;;10.83;5.70;;;3.90;99.90;;;;;;5068760;28;20479;-53
2021/01/07 11:30:15;;;;;;;11.40;6.63;;;3.80;99.90;;;;;;5069355;28;20457;-53
2021/01/07 11:32:44;;;;;;;11.57;6.47;;;4.00;99.90;;;;;;5068292;28;20204;-52
2021/01/07 11:35:11;;;;;;;10.50;4.90;;;4.00;99.90;;;;;;5067519;28;20458;-53
2021/01/07 11:37:52;;;;;;;7.90;4.67;;;4.00;99.90;;;;;;5069041;28;20478;-53
2021/01/07 11:40:26;;;;;;;10.33;5.47;;;4.20;99.90;;;;;;5069835;28;20494;-53
2021/01/07 11:43:15;;;;;;;8.33;4.60;;;4.10;99.90;;;;;;5069136;28;20637;-52
2021/01/07 11:45:46;;;;;;;8.47;5.27;;;4.10;99.90;;;;;;5035745;28;20470;-52
2021/01/07 11:48:14;;;;;;;12.40;6.07;;;4.10;99.90;;;;;;5058344;28;20566;-53
2021/01/07 11:50:43;;;;;;;11.20;5.33;;;4.30;99.90;;;;;;5066525;28;20531;-52
2021/01/07 11:53:10;;;;;;;8.00;4.43;;;4.50;99.90;;;;;;5067442;28;20466;-52
2021/01/07 11:55:37;;;;;;;7.77;4.10;;;4.00;99.90;;;;;;5068503;28;20474;-52
2021/01/07 11:58:16;;;;;;;10.57;4.67;;;4.00;99.90;;;;;;5066248;28;20498;-53
2021/01/07 12:00:44;;;;;;;9.43;5.30;;;4.10;99.90;;;;;;5067630;28;20511;-52
2021/01/07 12:03:13;;;;;;;11.87;7.10;;;4.10;99.90;;;;;;5065784;28;20494;-53
2021/01/07 12:05:40;;;;;;;21.93;6.50;;;4.40;99.90;;;;;;5066255;28;20459;-53
2021/01/07 12:08:16;;;;;;;14.77;5.80;;;4.40;99.90;;;;;;5066535;28;20510;-53
2021/01/07 12:10:47;;;;;;;13.50;5.70;;;4.00;99.90;;;;;;5062439;28;20459;-53
2021/01/07 12:13:21;;;;;;;10.43;4.70;;;3.80;99.90;;;;;;5063194;28;20468;-53
2021/01/07 12:15:51;;;;;;;10.90;5.40;;;3.90;99.90;;;;;;5061979;28;20464;-53
2021/01/07 12:18:18;;;;;;;8.20;4.90;;;4.00;99.90;;;;;;5062620;28;20479;-53
2021/01/07 12:20:46;;;;;;;9.00;5.03;;;4.20;99.90;;;;;;5062634;28;20459;-53
2021/01/07 12:23:14;;;;;;;8.37;4.73;;;4.30;99.90;;;;;;5062041;28;20610;-53
2021/01/07 12:25:41;;;;;;;11.50;5.70;;;4.30;99.90;;;;;;5062195;28;20458;-53
2021/01/07 12:28:15;;;;;;;9.17;5.10;;;4.30;99.90;;;;;;5063550;28;20519;-53
2021/01/07 12:30:49;;;;;;;8.47;4.97;;;4.30;99.90;;;;;;5063539;28;20465;-53
2021/01/07 12:33:23;;;;;;;11.70;5.40;;;4.20;99.90;;;;;;5061755;28;20473;-53
2021/01/07 12:36:02;;;;;;;11.23;5.10;;;4.10;99.90;;;;;;5062825;28;20459;-53
2021/01/07 12:38:40;;;;;;;9.30;4.77;;;4.20;99.90;;;;;;5061749;28;20569;-53
2021/01/07 12:41:10;;;;;;;9.10;5.03;;;4.30;99.90;;;;;;5062261;28;20490;-53
2021/01/07 12:43:40;;;;;;;9.80;5.17;;;3.90;99.90;;;;;;5062048;28;20451;-53
2021/01/07 12:46:08;;;;;;;9.40;5.20;;;3.60;99.90;;;;;;5063336;28;20534;-53
2021/01/07 12:48:38;;;;;;;11.17;6.03;;;3.80;99.90;;;;;;5062208;28;20505;-53
2021/01/07 12:51:04;;;;;;;10.27;5.40;;;4.00;99.90;;;;;;5060868;28;20463;-53
2021/01/07 12:53:31;;;;;;;10.10;5.57;;;4.10;99.90;;;;;;5060716;28;20470;-53
2021/01/07 12:55:58;;;;;;;10.60;6.60;;;4.20;99.90;;;;;;5061992;28;20462;-53
2021/01/07 12:58:26;;;;;;;11.33;6.50;;;4.30;99.90;;;;;;5062151;28;20493;-53
2021/01/07 13:01:00;;;;;;;11.67;6.00;;;4.20;99.90;;;;;;5062578;28;20455;-53
2021/01/07 13:03:36;;;;;;;11.77;5.90;;;4.30;99.90;;;;;;5062482;28;20462;-52
2021/01/07 13:06:05;;;;;;;10.50;5.70;;;4.10;99.90;;;;;;5063182;28;20462;-53
2021/01/07 13:08:31;;;;;;;10.53;5.83;;;3.90;99.90;;;;;;5061934;28;20497;-53
2021/01/07 13:11:01;;;;;;;9.47;5.77;;;4.00;99.90;;;;;;5063416;28;20467;-53
2021/01/07 13:13:36;;;;;;;16.10;6.37;;;3.90;99.90;;;;;;5062303;28;20467;-53
2021/01/07 13:16:03;;;;;;;12.10;5.90;;;3.80;99.90;;;;;;5064854;28;20462;-53
2021/01/07 13:18:30;;;;;;;14.00;6.20;;;3.70;99.90;;;;;;5063619;28;20479;-53
2021/01/07 13:20:56;;;;;;;18.53;6.97;;;3.70;99.90;;;;;;5061619;28;20463;-53
2021/01/07 13:23:25;;;;;;;13.70;7.10;;;3.50;99.90;;;;;;5063037;28;20998;-53
2021/01/07 13:25:54;;;;;;;11.70;6.27;;;3.50;99.90;;;;;;5061138;28;20467;-53
2021/01/07 13:28:21;;;;;;;10.20;5.50;;;3.40;99.90;;;;;;5061545;28;20496;-53
2021/01/07 13:30:48;;;;;;;11.63;5.30;;;3.40;99.90;;;;;;5066499;28;20459;-53